createdAt,value
2018-07-08T00:00:33.636Z,10.33
2018-07-08T00:01:33.613Z,10.41
2018-07-08T00:02:33.574Z,10.48
2018-07-08T00:03:34.363Z,10.48
2018-07-08T00:04:33.490Z,10.45
2018-07-08T00:05:33.468Z,10.32
2018-07-08T00:06:33.453Z,10.34
2018-07-08T00:07:33.373Z,10.32
2018-07-08T00:08:33.360Z,10.53
2018-07-08T00:09:33.299Z,10.51
2018-07-08T00:10:33.257Z,10.33
2018-07-08T00:11:33.241Z,10.27
2018-07-08T00:12:33.194Z,10.23
2018-07-08T00:13:33.161Z,10.17
2018-07-08T00:14:33.103Z,10.17
2018-07-08T00:15:33.068Z,10.25
2018-07-08T00:16:33.057Z,10.23
2018-07-08T00:17:32.984Z,10.15
2018-07-08T00:18:32.964Z,10.08
2018-07-08T00:19:32.928Z,10.15
2018-07-08T00:20:32.901Z,10.09
2018-07-08T00:21:32.875Z,10.08
2018-07-08T00:22:32.796Z,10.15
2018-07-08T00:23:32.781Z,10.08
2018-07-08T00:24:32.750Z,10.04
2018-07-08T00:25:32.704Z,10.05
2018-07-08T00:26:32.649Z,10.12
2018-07-08T00:27:32.626Z,10.02
2018-07-08T00:28:32.600Z,9.97
2018-07-08T00:29:32.563Z,10.11
2018-07-08T00:30:32.508Z,10.09
2018-07-08T00:31:32.458Z,9.99
2018-07-08T00:32:32.432Z,9.90
2018-07-08T00:33:32.399Z,9.93
2018-07-08T00:34:32.344Z,9.94
2018-07-08T00:35:32.316Z,9.96
2018-07-08T00:36:32.339Z,9.97
2018-07-08T00:37:32.239Z,9.96
2018-07-08T00:38:32.195Z,9.87
2018-07-08T00:39:32.151Z,9.91
2018-07-08T00:40:32.122Z,9.94
2018-07-08T00:41:32.088Z,9.86
2018-07-08T00:42:32.057Z,9.90
2018-07-08T00:43:32.020Z,9.91
2018-07-08T00:44:31.979Z,9.99
2018-07-08T00:45:31.933Z,9.96
2018-07-08T00:46:31.902Z,9.97
2018-07-08T00:47:31.866Z,9.99
2018-07-08T00:48:31.868Z,10.09
2018-07-08T00:49:31.783Z,10.12
2018-07-08T00:50:31.757Z,10.09
2018-07-08T00:51:31.770Z,10.11
2018-07-08T00:52:31.664Z,9.96
2018-07-08T00:53:31.643Z,9.96
2018-07-08T00:54:31.583Z,10.02
2018-07-08T00:55:31.557Z,10.15
2018-07-08T00:56:31.545Z,10.02
2018-07-08T00:57:31.547Z,9.94
2018-07-08T00:58:31.456Z,9.94
2018-07-08T00:59:31.422Z,10.04
2018-07-08T01:00:31.387Z,9.97
2018-07-08T01:01:31.369Z,9.97
2018-07-08T01:02:31.298Z,9.96
2018-07-08T01:03:31.246Z,9.90
2018-07-08T01:04:31.217Z,9.96
2018-07-08T01:05:31.183Z,10.12
2018-07-08T01:06:31.142Z,9.97
2018-07-08T01:07:31.095Z,9.93
2018-07-08T01:08:31.057Z,9.94
2018-07-08T01:09:31.012Z,10.12
2018-07-08T01:10:30.971Z,10.08
2018-07-08T01:11:30.941Z,10.09
2018-07-08T01:12:30.901Z,9.96
2018-07-08T01:13:30.907Z,9.96
2018-07-08T01:14:30.837Z,9.93
2018-07-08T01:15:30.811Z,9.93
2018-07-08T01:16:30.869Z,9.86
2018-07-08T01:17:30.730Z,9.97
2018-07-08T01:18:30.698Z,10.01
2018-07-08T01:19:30.643Z,10.11
2018-07-08T01:20:30.633Z,9.97
2018-07-08T01:21:30.587Z,9.94
2018-07-08T01:22:30.519Z,9.91
2018-07-08T01:23:30.477Z,9.89
2018-07-08T01:24:30.456Z,9.86
2018-07-08T01:25:30.421Z,9.87
2018-07-08T01:26:30.371Z,9.97
2018-07-08T01:27:30.341Z,9.81
2018-07-08T01:28:30.309Z,9.78
2018-07-08T01:29:30.256Z,9.66
2018-07-08T01:30:30.203Z,9.56
2018-07-08T01:31:30.178Z,9.69
2018-07-08T01:32:30.132Z,9.75
2018-07-08T01:33:30.084Z,9.79
2018-07-08T01:34:30.057Z,9.71
2018-07-08T01:35:30.022Z,9.66
2018-07-08T01:36:29.975Z,9.69
2018-07-08T01:37:29.944Z,9.69
2018-07-08T01:38:29.907Z,9.57
2018-07-08T01:39:29.857Z,9.60
2018-07-08T01:40:29.830Z,9.54
2018-07-08T01:41:29.804Z,9.51
2018-07-08T01:42:29.767Z,9.43
2018-07-08T01:43:29.716Z,9.50
2018-07-08T01:44:29.700Z,9.53
2018-07-08T01:45:29.633Z,9.48
2018-07-08T01:46:29.640Z,9.51
2018-07-08T01:47:29.577Z,9.54
2018-07-08T01:48:29.515Z,9.58
2018-07-08T01:49:29.490Z,9.48
2018-07-08T01:50:29.457Z,9.51
2018-07-08T01:51:29.412Z,9.38
2018-07-08T01:52:29.372Z,9.48
2018-07-08T01:53:29.329Z,9.56
2018-07-08T01:54:29.286Z,9.58
2018-07-08T01:55:29.259Z,9.54
2018-07-08T01:56:29.227Z,9.46
2018-07-08T01:57:29.195Z,9.36
2018-07-08T01:58:29.131Z,9.36
2018-07-08T01:59:29.099Z,9.38
2018-07-08T02:00:29.067Z,9.50
2018-07-08T02:01:29.018Z,9.43
2018-07-08T02:02:28.994Z,9.39
2018-07-08T02:03:28.958Z,9.35
2018-07-08T02:04:28.925Z,9.33
2018-07-08T02:05:28.884Z,9.39
2018-07-08T02:06:28.817Z,9.39
2018-07-08T02:07:28.795Z,9.26
2018-07-08T02:08:28.744Z,9.26
2018-07-08T02:09:28.718Z,9.29
2018-07-08T02:10:28.679Z,9.36
2018-07-08T02:11:28.637Z,9.39
2018-07-08T02:12:28.588Z,9.33
2018-07-08T02:13:28.550Z,9.38
2018-07-08T02:14:28.532Z,9.40
2018-07-08T02:15:28.486Z,9.43
2018-07-08T02:16:28.457Z,9.35
2018-07-08T02:17:28.431Z,9.33
2018-07-08T02:18:28.441Z,9.31
2018-07-08T02:19:28.321Z,9.32
2018-07-08T02:20:28.288Z,9.36
2018-07-08T02:21:28.240Z,9.39
2018-07-08T02:22:28.235Z,9.39
2018-07-08T02:23:28.189Z,9.39
2018-07-08T02:24:28.127Z,9.43
2018-07-08T02:25:28.097Z,9.36
2018-07-08T02:26:28.050Z,9.38
2018-07-08T02:27:28.037Z,9.38
2018-07-08T02:28:28.001Z,9.32
2018-07-08T02:29:27.953Z,9.24
2018-07-08T02:30:27.895Z,9.13
2018-07-08T02:31:27.881Z,9.13
2018-07-08T02:32:27.842Z,9.31
2018-07-08T02:33:27.790Z,9.39
2018-07-08T02:34:27.759Z,9.48
2018-07-08T02:35:27.718Z,9.47
2018-07-08T02:36:27.677Z,9.39
2018-07-08T02:37:27.636Z,9.32
2018-07-08T02:38:27.603Z,9.29
2018-07-08T02:39:27.547Z,9.32
2018-07-08T02:40:27.529Z,9.29
2018-07-08T02:41:27.481Z,9.21
2018-07-08T02:42:27.452Z,9.17
2018-07-08T02:43:27.400Z,9.11
2018-07-08T02:44:27.392Z,9.11
2018-07-08T02:45:27.332Z,9.15
2018-07-08T02:46:27.286Z,9.17
2018-07-08T02:47:27.324Z,9.20
2018-07-08T02:48:27.235Z,9.20
2018-07-08T02:49:27.190Z,9.18
2018-07-08T02:50:27.153Z,9.15
2018-07-08T02:51:27.093Z,9.17
2018-07-08T02:52:27.061Z,9.13
2018-07-08T02:53:27.029Z,9.04
2018-07-08T02:54:26.968Z,8.87
2018-07-08T02:55:26.931Z,8.95
2018-07-08T02:56:26.902Z,8.96
2018-07-08T02:57:26.863Z,8.96
2018-07-08T02:58:26.823Z,9.13
2018-07-08T02:59:26.789Z,9.13
2018-07-08T03:00:26.750Z,9.11
2018-07-08T03:01:26.709Z,9.17
2018-07-08T03:02:26.664Z,9.18
2018-07-08T03:03:26.645Z,9.23
2018-07-08T03:04:26.588Z,9.21
2018-07-08T03:05:26.572Z,9.17
2018-07-08T03:06:26.507Z,9.14
2018-07-08T03:07:26.476Z,9.11
2018-07-08T03:08:26.445Z,9.08
2018-07-08T03:09:26.417Z,9.14
2018-07-08T03:10:26.369Z,9.02
2018-07-08T03:11:26.317Z,9.10
2018-07-08T03:12:26.281Z,8.99
2018-07-08T03:13:26.241Z,9.05
2018-07-08T03:14:26.209Z,9.10
2018-07-08T03:15:26.152Z,9.01
2018-07-08T03:16:26.135Z,9.08
2018-07-08T03:17:26.076Z,8.99
2018-07-08T03:18:26.049Z,9.10
2018-07-08T03:19:26.021Z,8.92
2018-07-08T03:20:25.958Z,9.08
2018-07-08T03:21:25.926Z,9.01
2018-07-08T03:22:25.887Z,8.98
2018-07-08T03:23:25.854Z,8.95
2018-07-08T03:24:25.824Z,8.94
2018-07-08T03:25:25.787Z,8.91
2018-07-08T03:26:25.754Z,8.81
2018-07-08T03:27:25.695Z,8.87
2018-07-08T03:28:25.661Z,8.81
2018-07-08T03:29:25.617Z,8.79
2018-07-08T03:30:25.589Z,8.95
2018-07-08T03:31:25.559Z,8.81
2018-07-08T03:32:25.497Z,8.94
2018-07-08T03:33:25.528Z,8.84
2018-07-08T03:34:25.461Z,8.96
2018-07-08T03:35:25.415Z,8.89
2018-07-08T03:36:25.345Z,9.10
2018-07-08T03:37:25.314Z,9.13
2018-07-08T03:38:25.272Z,9.20
2018-07-08T03:39:25.278Z,9.28
2018-07-08T03:40:25.188Z,9.31
2018-07-08T03:41:25.165Z,9.21
2018-07-08T03:42:25.110Z,9.15
2018-07-08T03:43:25.086Z,9.11
2018-07-08T03:44:25.049Z,9.08
2018-07-08T03:45:25.004Z,9.10
2018-07-08T03:46:24.976Z,9.11
2018-07-08T03:47:24.940Z,9.08
2018-07-08T03:48:24.880Z,9.02
2018-07-08T03:49:24.859Z,9.04
2018-07-08T03:50:24.828Z,8.99
2018-07-08T03:51:24.761Z,8.96
2018-07-08T03:52:24.731Z,8.96
2018-07-08T03:53:24.695Z,9.13
2018-07-08T03:54:24.664Z,9.13
2018-07-08T03:55:24.626Z,9.13
2018-07-08T03:56:24.590Z,9.23
2018-07-08T03:57:24.521Z,9.26
2018-07-08T03:58:24.513Z,9.32
2018-07-08T03:59:24.470Z,9.35
2018-07-08T04:00:24.416Z,9.36
2018-07-08T04:01:24.399Z,9.38
2018-07-08T04:02:24.342Z,9.43
2018-07-08T04:03:24.317Z,9.36
2018-07-08T04:04:24.292Z,9.51
2018-07-08T04:05:24.233Z,9.66
2018-07-08T04:06:24.208Z,9.68
2018-07-08T04:07:24.142Z,9.81
2018-07-08T04:08:24.132Z,10.08
2018-07-08T04:09:24.077Z,10.51
2018-07-08T04:10:24.042Z,11.00
2018-07-08T04:11:24.003Z,11.82
2018-07-08T04:12:23.954Z,12.52
2018-07-08T04:13:23.912Z,13.03
2018-07-08T04:14:23.888Z,13.36
2018-07-08T04:15:23.914Z,13.82
2018-07-08T04:16:23.812Z,14.12
2018-07-08T04:17:23.797Z,14.68
2018-07-08T04:18:23.740Z,14.94
2018-07-08T04:19:23.682Z,15.16
2018-07-08T04:20:23.657Z,15.50
2018-07-08T04:21:23.628Z,15.78
2018-07-08T04:22:23.572Z,16.24
2018-07-08T04:23:23.534Z,16.45
2018-07-08T04:24:23.510Z,16.63
2018-07-08T04:25:23.476Z,16.94
2018-07-08T04:26:23.441Z,17.00
2018-07-08T04:27:23.392Z,16.83
2018-07-08T04:28:23.359Z,16.94
2018-07-08T04:29:23.334Z,16.88
2018-07-08T04:30:23.302Z,17.08
2018-07-08T04:31:23.260Z,17.30
2018-07-08T04:32:23.229Z,17.48
2018-07-08T04:33:23.193Z,17.63
2018-07-08T04:34:23.150Z,17.84
2018-07-08T04:35:23.138Z,18.03
2018-07-08T04:36:23.180Z,18.32
2018-07-08T04:37:23.056Z,18.41
2018-07-08T04:38:23.036Z,18.62
2018-07-08T04:39:22.981Z,18.41
2018-07-08T04:40:23.002Z,18.29
2018-07-08T04:41:22.905Z,17.90
2018-07-08T04:42:22.884Z,18.14
2018-07-08T04:43:22.848Z,18.26
2018-07-08T04:44:22.831Z,18.60
2018-07-08T04:45:22.797Z,18.84
2018-07-08T04:46:22.731Z,19.10
2018-07-08T04:47:22.716Z,19.39
2018-07-08T04:48:22.696Z,19.32
2018-07-08T04:49:22.782Z,18.65
2018-07-08T04:50:22.622Z,18.14
2018-07-08T04:51:22.582Z,17.89
2018-07-08T04:52:22.580Z,18.27
2018-07-08T04:53:22.521Z,18.18
2018-07-08T04:54:22.499Z,18.12
2018-07-08T04:55:22.464Z,18.14
2018-07-08T04:56:22.436Z,18.00
2018-07-08T04:57:22.406Z,17.58
2018-07-08T04:58:22.372Z,17.55
2018-07-08T04:59:22.329Z,17.58
2018-07-08T05:00:22.299Z,18.03
2018-07-08T05:01:22.269Z,18.58
2018-07-08T05:02:22.241Z,19.07
2018-07-08T05:03:22.209Z,19.48
2018-07-08T05:04:22.181Z,20.08
2018-07-08T05:05:22.159Z,20.39
2018-07-08T05:06:22.152Z,20.38
2018-07-08T05:07:22.092Z,20.23
2018-07-08T05:08:22.045Z,20.18
2018-07-08T05:09:22.022Z,20.55
2018-07-08T05:10:22.019Z,20.70
2018-07-08T05:11:21.975Z,20.85
2018-07-08T05:12:21.947Z,21.31
2018-07-08T05:13:21.906Z,21.54
2018-07-08T05:14:21.875Z,21.42
2018-07-08T05:15:21.853Z,21.01
2018-07-08T05:16:21.820Z,20.74
2018-07-08T05:17:21.781Z,20.92
2018-07-08T05:18:21.764Z,20.80
2018-07-08T05:19:21.728Z,20.72
2018-07-08T05:20:22.402Z,21.06
2018-07-08T05:21:21.666Z,21.29
2018-07-08T05:22:21.651Z,21.31
2018-07-08T05:23:21.613Z,21.12
2018-07-08T05:24:21.584Z,20.77
2018-07-08T05:25:21.567Z,20.21
2018-07-08T05:26:21.535Z,19.63
2018-07-08T05:27:21.507Z,19.36
2018-07-08T05:28:21.470Z,19.19
2018-07-08T05:29:21.456Z,18.70
2018-07-08T05:30:21.425Z,18.58
2018-07-08T05:31:21.391Z,18.66
2018-07-08T05:32:21.363Z,19.07
2018-07-08T05:33:21.354Z,19.59
2018-07-08T05:34:21.322Z,20.38
2018-07-08T05:35:21.282Z,20.74
2018-07-08T05:36:21.260Z,21.14
2018-07-08T05:37:21.241Z,21.40
2018-07-08T05:38:21.195Z,21.58
2018-07-08T05:39:21.200Z,21.64
2018-07-08T05:40:21.157Z,21.52
2018-07-08T05:41:21.120Z,21.72
2018-07-08T05:42:21.100Z,21.54
2018-07-08T05:43:21.079Z,20.98
2018-07-08T05:44:21.021Z,20.13
2018-07-08T05:45:21.010Z,19.39
2018-07-08T05:46:21.006Z,18.54
2018-07-08T05:47:20.966Z,17.81
2018-07-08T05:48:20.948Z,17.41
2018-07-08T05:49:20.916Z,17.23
2018-07-08T05:50:21.010Z,17.06
2018-07-08T05:51:20.842Z,17.11
2018-07-08T05:52:20.813Z,16.91
2018-07-08T05:53:20.790Z,16.66
2018-07-08T05:54:20.757Z,16.68
2018-07-08T05:55:20.741Z,16.66
2018-07-08T05:56:20.703Z,16.63
2018-07-08T05:57:20.674Z,16.67
2018-07-08T05:58:20.659Z,16.64
2018-07-08T05:59:20.607Z,16.70
2018-07-08T06:00:20.582Z,16.83
2018-07-08T06:01:20.555Z,16.88
2018-07-08T06:02:20.519Z,16.85
2018-07-08T06:03:20.496Z,17.08
2018-07-08T06:04:20.459Z,17.00
2018-07-08T06:05:20.444Z,16.97
2018-07-08T06:06:20.412Z,16.93
2018-07-08T06:07:20.374Z,16.96
2018-07-08T06:08:20.360Z,16.97
2018-07-08T06:09:20.345Z,16.94
2018-07-08T06:10:20.276Z,17.07
2018-07-08T06:11:20.273Z,17.04
2018-07-08T06:12:20.243Z,17.14
2018-07-08T06:13:20.213Z,17.07
2018-07-08T06:14:20.190Z,17.12
2018-07-08T06:15:20.143Z,17.18
2018-07-08T06:16:20.115Z,17.15
2018-07-08T06:17:20.073Z,17.16
2018-07-08T06:18:20.052Z,17.23
2018-07-08T06:19:20.005Z,17.19
2018-07-08T06:20:19.970Z,17.40
2018-07-08T06:21:19.969Z,17.56
2018-07-08T06:22:19.921Z,17.63
2018-07-08T06:23:19.875Z,17.75
2018-07-08T06:24:19.858Z,17.77
2018-07-08T06:25:19.813Z,17.72
2018-07-08T06:26:19.788Z,17.75
2018-07-08T06:27:19.754Z,17.78
2018-07-08T06:28:19.735Z,17.82
2018-07-08T06:29:19.689Z,17.62
2018-07-08T06:30:19.690Z,17.66
2018-07-08T06:31:19.629Z,17.62
2018-07-08T06:32:19.601Z,17.59
2018-07-08T06:33:19.577Z,17.55
2018-07-08T06:34:19.580Z,17.71
2018-07-08T06:35:19.526Z,17.89
2018-07-08T06:36:19.481Z,18.00
2018-07-08T06:37:19.450Z,18.05
2018-07-08T06:38:19.428Z,18.07
2018-07-08T06:39:19.412Z,17.97
2018-07-08T06:40:19.345Z,17.92
2018-07-08T06:41:19.322Z,17.90
2018-07-08T06:42:19.296Z,17.84
2018-07-08T06:43:19.273Z,17.87
2018-07-08T06:44:19.216Z,17.90
2018-07-08T06:45:19.211Z,17.87
2018-07-08T06:46:19.171Z,17.79
2018-07-08T06:47:19.117Z,18.00
2018-07-08T06:48:19.101Z,17.96
2018-07-08T06:49:19.131Z,18.03
2018-07-08T06:50:19.039Z,17.97
2018-07-08T06:51:18.996Z,17.99
2018-07-08T06:52:18.975Z,18.00
2018-07-08T06:53:18.948Z,18.12
2018-07-08T06:54:18.898Z,18.07
2018-07-08T06:55:18.881Z,18.12
2018-07-08T06:56:18.839Z,18.20
2018-07-08T06:57:18.800Z,18.25
2018-07-08T06:58:18.772Z,18.32
2018-07-08T06:59:18.737Z,18.67
2018-07-08T07:00:18.702Z,18.65
2018-07-08T07:01:18.673Z,18.73
2018-07-08T07:02:18.664Z,19.04
2018-07-08T07:03:18.621Z,19.71
2018-07-08T07:04:18.598Z,20.55
2018-07-08T07:05:18.549Z,21.31
2018-07-08T07:06:18.548Z,21.43
2018-07-08T07:07:18.492Z,21.82
2018-07-08T07:08:18.506Z,22.54
2018-07-08T07:09:18.434Z,22.46
2018-07-08T07:10:18.406Z,22.80
2018-07-08T07:11:18.983Z,23.23
2018-07-08T07:12:18.337Z,23.35
2018-07-08T07:13:18.342Z,23.39
2018-07-08T07:14:18.278Z,23.61
2018-07-08T07:15:18.242Z,23.43
2018-07-08T07:16:18.307Z,23.61
2018-07-08T07:17:18.190Z,23.42
2018-07-08T07:18:18.164Z,23.16
2018-07-08T07:19:18.299Z,23.40
2018-07-08T07:20:18.120Z,23.90
2018-07-08T07:21:18.077Z,24.12
2018-07-08T07:22:18.042Z,24.21
2018-07-08T07:23:18.020Z,24.28
2018-07-08T07:24:18.008Z,24.40
2018-07-08T07:25:17.960Z,24.39
2018-07-08T07:26:17.961Z,24.52
2018-07-08T07:27:17.918Z,24.69
2018-07-08T07:28:17.888Z,25.18
2018-07-08T07:29:17.887Z,25.30
2018-07-08T07:30:17.836Z,25.57
2018-07-08T07:31:17.810Z,25.10
2018-07-08T07:32:17.807Z,24.57
2018-07-08T07:33:17.762Z,24.13
2018-07-08T07:34:17.736Z,23.78
2018-07-08T07:35:17.709Z,23.83
2018-07-08T07:36:17.720Z,23.87
2018-07-08T07:37:17.679Z,23.61
2018-07-08T07:38:17.637Z,23.73
2018-07-08T07:39:17.616Z,24.22
2018-07-08T07:40:17.592Z,24.68
2018-07-08T07:41:17.567Z,24.81
2018-07-08T07:42:17.559Z,25.23
2018-07-08T07:43:17.526Z,25.43
2018-07-08T07:44:17.498Z,25.18
2018-07-08T07:45:17.535Z,25.42
2018-07-08T07:46:17.462Z,25.61
2018-07-08T07:47:17.437Z,25.51
2018-07-08T07:48:17.404Z,25.25
2018-07-08T07:49:17.392Z,25.18
2018-07-08T07:50:17.369Z,25.73
2018-07-08T07:51:17.415Z,25.50
2018-07-08T07:52:17.306Z,25.09
2018-07-08T07:53:17.314Z,25.18
2018-07-08T07:54:17.268Z,25.18
2018-07-08T07:55:17.262Z,25.58
2018-07-08T07:56:17.241Z,25.51
2018-07-08T07:57:17.342Z,25.64
2018-07-08T07:58:17.186Z,25.76
2018-07-08T07:59:17.164Z,25.87
2018-07-08T08:00:17.136Z,25.30
2018-07-08T08:01:17.117Z,25.36
2018-07-08T08:02:17.092Z,25.20
2018-07-08T08:03:17.058Z,25.09
2018-07-08T08:04:17.039Z,25.42
2018-07-08T08:05:17.039Z,25.77
2018-07-08T08:06:16.996Z,25.82
2018-07-08T08:07:16.988Z,26.13
2018-07-08T08:08:16.964Z,25.54
2018-07-08T08:09:16.928Z,25.61
2018-07-08T08:10:16.925Z,25.92
2018-07-08T08:11:16.906Z,26.28
2018-07-08T08:12:16.882Z,25.52
2018-07-08T08:13:16.845Z,25.38
2018-07-08T08:14:16.820Z,24.85
2018-07-08T08:15:16.806Z,25.38
2018-07-08T08:16:16.782Z,25.76
2018-07-08T08:17:16.768Z,25.32
2018-07-08T08:18:16.750Z,25.27
2018-07-08T08:19:16.709Z,25.03
2018-07-08T08:20:16.687Z,24.88
2018-07-08T08:21:16.677Z,24.69
2018-07-08T08:22:16.655Z,23.85
2018-07-08T08:23:16.627Z,24.39
2018-07-08T08:24:16.618Z,24.34
2018-07-08T08:25:16.582Z,24.76
2018-07-08T08:26:16.575Z,25.09
2018-07-08T08:27:16.541Z,25.15
2018-07-08T08:28:16.618Z,25.38
2018-07-08T08:29:16.547Z,25.61
2018-07-08T08:30:16.498Z,26.02
2018-07-08T08:31:16.448Z,26.17
2018-07-08T08:32:16.443Z,25.98
2018-07-08T08:33:16.422Z,26.54
2018-07-08T08:34:16.399Z,26.10
2018-07-08T08:35:16.371Z,26.57
2018-07-08T08:36:16.352Z,26.54
2018-07-08T08:37:16.356Z,26.48
2018-07-08T08:38:16.336Z,26.76
2018-07-08T08:39:16.294Z,25.95
2018-07-08T08:40:16.275Z,25.10
2018-07-08T08:41:16.259Z,25.36
2018-07-08T08:42:16.224Z,25.62
2018-07-08T08:43:16.204Z,25.90
2018-07-08T08:44:16.203Z,25.33
2018-07-08T08:45:16.159Z,24.88
2018-07-08T08:46:16.153Z,24.99
2018-07-08T08:47:16.111Z,25.00
2018-07-08T08:48:16.124Z,24.88
2018-07-08T08:49:16.076Z,25.17
2018-07-08T08:50:16.044Z,25.38
2018-07-08T08:51:16.061Z,25.97
2018-07-08T08:52:16.015Z,26.51
2018-07-08T08:53:15.999Z,25.38
2018-07-08T08:54:15.966Z,25.40
2018-07-08T08:55:15.945Z,25.21
2018-07-08T08:56:15.913Z,25.47
2018-07-08T08:57:15.912Z,25.77
2018-07-08T08:58:15.933Z,25.76
2018-07-08T08:59:15.862Z,25.61
2018-07-08T09:00:15.822Z,25.39
2018-07-08T09:01:15.808Z,25.65
2018-07-08T09:02:15.796Z,25.32
2018-07-08T09:03:15.816Z,25.70
2018-07-08T09:04:15.757Z,25.83
2018-07-08T09:05:15.754Z,25.60
2018-07-08T09:06:15.722Z,25.85
2018-07-08T09:07:15.684Z,25.94
2018-07-08T09:08:15.660Z,25.90
2018-07-08T09:09:15.638Z,25.06
2018-07-08T09:10:15.613Z,24.88
2018-07-08T09:11:15.611Z,25.13
2018-07-08T09:12:15.583Z,25.94
2018-07-08T09:13:15.584Z,25.42
2018-07-08T09:14:15.531Z,25.54
2018-07-08T09:15:15.503Z,25.73
2018-07-08T09:16:15.494Z,26.13
2018-07-08T09:17:15.519Z,26.67
2018-07-08T09:18:15.435Z,26.92
2018-07-08T09:19:15.422Z,27.69
2018-07-08T09:20:15.407Z,27.97
2018-07-08T09:21:15.391Z,27.00
2018-07-08T09:22:15.363Z,27.37
2018-07-08T09:23:15.346Z,27.39
2018-07-08T09:24:15.330Z,27.12
2018-07-08T09:25:15.297Z,27.51
2018-07-08T09:26:15.290Z,27.94
2018-07-08T09:27:15.249Z,27.19
2018-07-08T09:28:15.233Z,26.65
2018-07-08T09:29:15.232Z,26.26
2018-07-08T09:30:15.207Z,26.18
2018-07-08T09:31:15.166Z,26.63
2018-07-08T09:32:15.148Z,26.15
2018-07-08T09:33:15.168Z,26.32
2018-07-08T09:34:15.106Z,26.58
2018-07-08T09:35:15.073Z,26.89
2018-07-08T09:36:15.054Z,26.44
2018-07-08T09:37:15.039Z,26.82
2018-07-08T09:38:15.018Z,26.52
2018-07-08T09:39:15.069Z,26.58
2018-07-08T09:40:14.972Z,26.80
2018-07-08T09:41:14.953Z,27.13
2018-07-08T09:42:14.951Z,27.47
2018-07-08T09:43:14.907Z,26.91
2018-07-08T09:44:14.883Z,27.12
2018-07-08T09:45:14.871Z,26.88
2018-07-08T09:46:14.859Z,27.46
2018-07-08T09:47:14.830Z,27.82
2018-07-08T09:48:14.819Z,27.74
2018-07-08T09:49:14.780Z,28.04
2018-07-08T09:50:14.763Z,28.37
2018-07-08T09:51:14.739Z,28.86
2018-07-08T09:52:14.740Z,28.07
2018-07-08T09:53:14.691Z,28.39
2018-07-08T09:54:14.676Z,28.19
2018-07-08T09:55:14.642Z,27.57
2018-07-08T09:56:14.625Z,26.85
2018-07-08T09:57:14.631Z,27.39
2018-07-08T09:58:14.585Z,27.44
2018-07-08T09:59:14.577Z,27.13
2018-07-08T10:00:14.552Z,27.37
2018-07-08T10:01:14.519Z,27.44
2018-07-08T10:02:14.521Z,26.95
2018-07-08T10:03:14.493Z,26.28
2018-07-08T10:04:14.488Z,26.67
2018-07-08T10:05:14.455Z,26.75
2018-07-08T10:06:14.422Z,26.87
2018-07-08T10:07:14.396Z,27.03
2018-07-08T10:08:14.369Z,26.62
2018-07-08T10:09:14.348Z,26.60
2018-07-08T10:10:14.346Z,27.21
2018-07-08T10:11:14.316Z,27.47
2018-07-08T10:12:14.285Z,27.90
2018-07-08T10:13:14.280Z,27.70
2018-07-08T10:14:14.241Z,27.22
2018-07-08T10:15:14.218Z,26.65
2018-07-08T10:16:14.251Z,25.65
2018-07-08T10:17:14.187Z,24.69
2018-07-08T10:18:14.151Z,24.28
2018-07-08T10:19:14.129Z,23.68
2018-07-08T10:20:14.124Z,23.27
2018-07-08T10:21:14.101Z,22.85
2018-07-08T10:22:14.076Z,23.13
2018-07-08T10:23:14.080Z,24.32
2018-07-08T10:24:14.080Z,25.30
2018-07-08T10:25:14.109Z,25.57
2018-07-08T10:26:13.988Z,25.57
2018-07-08T10:27:13.987Z,25.87
2018-07-08T10:28:13.959Z,26.13
2018-07-08T10:29:13.933Z,26.25
2018-07-08T10:30:13.947Z,26.18
2018-07-08T10:31:13.973Z,26.29
2018-07-08T10:32:13.857Z,26.12
2018-07-08T10:33:13.850Z,25.76
2018-07-08T10:34:13.840Z,25.87
2018-07-08T10:35:13.790Z,25.76
2018-07-08T10:36:13.770Z,25.87
2018-07-08T10:37:13.735Z,26.23
2018-07-08T10:38:13.760Z,26.30
2018-07-08T10:39:13.702Z,26.50
2018-07-08T10:40:13.700Z,27.07
2018-07-08T10:41:13.691Z,27.40
2018-07-08T10:42:13.625Z,27.75
2018-07-08T10:43:13.692Z,27.81
2018-07-08T10:44:13.579Z,27.51
2018-07-08T10:45:13.547Z,27.50
2018-07-08T10:46:13.535Z,27.74
2018-07-08T10:47:13.505Z,27.74
2018-07-08T10:48:13.487Z,27.65
2018-07-08T10:49:13.463Z,27.87
2018-07-08T10:50:13.432Z,27.67
2018-07-08T10:51:13.399Z,27.99
2018-07-08T10:52:13.385Z,28.39
2018-07-08T10:53:13.419Z,28.70
2018-07-08T10:54:13.352Z,28.62
2018-07-08T10:55:13.364Z,27.72
2018-07-08T10:56:13.291Z,27.92
2018-07-08T10:57:13.280Z,28.09
2018-07-08T10:58:13.268Z,28.09
2018-07-08T10:59:13.236Z,28.43
2018-07-08T11:00:13.213Z,28.27
2018-07-08T11:01:13.173Z,28.00
2018-07-08T11:02:13.202Z,27.88
2018-07-08T11:03:13.139Z,28.17
2018-07-08T11:04:13.129Z,27.88
2018-07-08T11:05:13.093Z,28.19
2018-07-08T11:06:13.059Z,28.71
2018-07-08T11:07:13.107Z,28.92
2018-07-08T11:08:13.063Z,28.27
2018-07-08T11:09:13.008Z,28.14
2018-07-08T11:10:12.993Z,27.46
2018-07-08T11:11:12.954Z,26.84
2018-07-08T11:12:12.944Z,26.66
2018-07-08T11:13:12.911Z,26.47
2018-07-08T11:14:12.931Z,26.37
2018-07-08T11:15:12.871Z,26.36
2018-07-08T11:16:12.880Z,26.48
2018-07-08T11:17:12.905Z,26.57
2018-07-08T11:18:12.798Z,26.70
2018-07-08T11:19:12.812Z,26.81
2018-07-08T11:20:12.775Z,26.60
2018-07-08T11:21:12.727Z,26.80
2018-07-08T11:22:12.717Z,27.51
2018-07-08T11:23:12.689Z,28.02
2018-07-08T11:24:12.743Z,28.54
2018-07-08T11:25:12.707Z,28.27
2018-07-08T11:26:12.728Z,27.39
2018-07-08T11:27:12.700Z,26.77
2018-07-08T11:28:12.638Z,26.20
2018-07-08T11:29:12.631Z,26.29
2018-07-08T11:30:12.616Z,26.40
2018-07-08T11:31:12.553Z,26.32
2018-07-08T11:32:12.565Z,26.26
2018-07-08T11:33:12.470Z,26.30
2018-07-08T11:34:12.500Z,26.62
2018-07-08T11:35:12.506Z,26.60
2018-07-08T11:36:12.453Z,26.65
2018-07-08T11:37:12.385Z,26.76
2018-07-08T11:38:12.363Z,26.58
2018-07-08T11:39:12.352Z,26.20
2018-07-08T11:40:12.310Z,25.77
2018-07-08T11:41:12.330Z,25.50
2018-07-08T11:42:12.376Z,25.17
2018-07-08T11:43:12.265Z,24.73
2018-07-08T11:44:12.304Z,24.67
2018-07-08T11:45:12.215Z,24.47
2018-07-08T11:46:12.158Z,24.58
2018-07-08T11:47:12.141Z,24.85
2018-07-08T11:48:12.114Z,24.87
2018-07-08T11:49:12.089Z,25.17
2018-07-08T11:50:12.104Z,25.54
2018-07-08T11:51:12.050Z,25.60
2018-07-08T11:52:12.049Z,25.97
2018-07-08T11:53:12.011Z,26.18
2018-07-08T11:54:11.964Z,25.42
2018-07-08T11:55:11.950Z,25.24
2018-07-08T11:56:11.935Z,25.15
2018-07-08T11:57:11.897Z,24.83
2018-07-08T11:58:11.878Z,24.76
2018-07-08T11:59:11.842Z,24.69
2018-07-08T12:00:11.827Z,25.21
2018-07-08T12:01:11.814Z,25.99
2018-07-08T12:02:11.774Z,26.60
2018-07-08T12:03:11.757Z,27.29
2018-07-08T12:04:11.732Z,27.84
2018-07-08T12:05:11.709Z,28.12
2018-07-08T12:06:11.687Z,27.85
2018-07-08T12:07:11.645Z,27.77
2018-07-08T12:08:11.619Z,27.96
2018-07-08T12:09:11.600Z,28.17
2018-07-08T12:10:11.581Z,28.37
2018-07-08T12:11:11.555Z,28.27
2018-07-08T12:12:11.531Z,28.34
2018-07-08T12:13:11.513Z,28.12
2018-07-08T12:14:11.489Z,27.36
2018-07-08T12:15:11.449Z,27.36
2018-07-08T12:16:11.445Z,27.74
2018-07-08T12:17:11.426Z,27.66
2018-07-08T12:18:11.396Z,27.17
2018-07-08T12:19:11.368Z,27.25
2018-07-08T12:20:11.386Z,26.89
2018-07-08T12:21:11.318Z,27.13
2018-07-08T12:22:11.306Z,27.37
2018-07-08T12:23:11.273Z,27.43
2018-07-08T12:24:11.270Z,27.85
2018-07-08T12:25:11.242Z,27.57
2018-07-08T12:26:11.228Z,26.95
2018-07-08T12:27:11.205Z,27.04
2018-07-08T12:28:11.172Z,27.12
2018-07-08T12:29:11.155Z,26.89
2018-07-08T12:30:11.140Z,26.72
2018-07-08T12:31:11.128Z,26.97
2018-07-08T12:32:11.066Z,27.14
2018-07-08T12:33:11.055Z,27.17
2018-07-08T12:34:11.042Z,27.43
2018-07-08T12:35:11.008Z,27.93
2018-07-08T12:36:10.978Z,28.34
2018-07-08T12:37:10.952Z,28.78
2018-07-08T12:38:10.950Z,29.16
2018-07-08T12:39:10.932Z,29.31
2018-07-08T12:40:10.910Z,29.92
2018-07-08T12:41:10.868Z,30.02
2018-07-08T12:42:10.868Z,29.24
2018-07-08T12:43:10.862Z,29.45
2018-07-08T12:44:10.864Z,28.34
2018-07-08T12:45:10.790Z,27.49
2018-07-08T12:46:10.766Z,26.88
2018-07-08T12:47:10.742Z,26.33
2018-07-08T12:48:10.743Z,26.52
2018-07-08T12:49:10.706Z,27.29
2018-07-08T12:50:10.680Z,27.24
2018-07-08T12:51:10.663Z,27.41
2018-07-08T12:52:10.635Z,27.32
2018-07-08T12:53:10.619Z,26.65
2018-07-08T12:54:10.613Z,26.39
2018-07-08T12:55:10.589Z,26.20
2018-07-08T12:56:10.548Z,26.17
2018-07-08T12:57:10.533Z,26.17
2018-07-08T12:58:10.526Z,26.62
2018-07-08T12:59:10.493Z,26.95